sensor_id;sensor_type;location;lat;lon;timestamp;P1;durP1;ratioP1;P2;durP2;ratioP2
81967;SDS011;72395;56.880;60.614;2023-09-19T00:02:18;16.58;;;10.13;;
81967;SDS011;72395;56.880;60.614;2023-09-19T00:04:45;16.77;;;9.98;;
81967;SDS011;72395;56.880;60.614;2023-09-19T00:07:11;15.52;;;10.63;;
81967;SDS011;72395;56.880;60.614;2023-09-19T00:09:37;13.85;;;10.30;;
81967;SDS011;72395;56.880;60.614;2023-09-19T00:12:05;16.13;;;9.95;;
81967;SDS011;72395;56.880;60.614;2023-09-19T00:14:32;18.00;;;10.52;;
81967;SDS011;72395;56.880;60.614;2023-09-19T00:17:02;17.40;;;10.50;;
81967;SDS011;72395;56.880;60.614;2023-09-19T00:19:34;18.65;;;9.82;;
81967;SDS011;72395;56.880;60.614;2023-09-19T00:22:01;18.55;;;12.60;;
81967;SDS011;72395;56.880;60.614;2023-09-19T00:24:28;18.52;;;12.40;;
81967;SDS011;72395;56.880;60.614;2023-09-19T00:26:55;21.25;;;13.43;;
81967;SDS011;72395;56.880;60.614;2023-09-19T00:29:22;28.05;;;15.57;;
81967;SDS011;72395;56.880;60.614;2023-09-19T00:31:50;24.63;;;16.25;;
81967;SDS011;72395;56.880;60.614;2023-09-19T00:34:17;25.30;;;14.95;;
81967;SDS011;72395;56.880;60.614;2023-09-19T00:36:44;24.52;;;15.75;;
81967;SDS011;72395;56.880;60.614;2023-09-19T00:39:11;29.33;;;14.48;;
81967;SDS011;72395;56.880;60.614;2023-09-19T00:41:38;22.13;;;12.57;;
81967;SDS011;72395;56.880;60.614;2023-09-19T00:44:05;21.35;;;11.75;;
81967;SDS011;72395;56.880;60.614;2023-09-19T00:46:31;18.88;;;11.20;;
81967;SDS011;72395;56.880;60.614;2023-09-19T00:48:58;18.13;;;11.30;;
81967;SDS011;72395;56.880;60.614;2023-09-19T00:51:25;21.08;;;11.10;;
81967;SDS011;72395;56.880;60.614;2023-09-19T00:53:53;20.58;;;12.82;;
81967;SDS011;72395;56.880;60.614;2023-09-19T00:56:20;21.20;;;12.32;;
81967;SDS011;72395;56.880;60.614;2023-09-19T00:58:47;19.90;;;11.88;;
81967;SDS011;72395;56.880;60.614;2023-09-19T01:01:14;18.17;;;11.23;;
81967;SDS011;72395;56.880;60.614;2023-09-19T01:03:41;21.23;;;12.15;;
81967;SDS011;72395;56.880;60.614;2023-09-19T01:06:08;18.08;;;11.02;;
81967;SDS011;72395;56.880;60.614;2023-09-19T01:08:35;21.27;;;11.32;;
81967;SDS011;72395;56.880;60.614;2023-09-19T01:11:20;24.90;;;10.85;;
81967;SDS011;72395;56.880;60.614;2023-09-19T01:13:58;17.60;;;10.20;;
81967;SDS011;72395;56.880;60.614;2023-09-19T01:17:03;21.05;;;11.68;;
81967;SDS011;72395;56.880;60.614;2023-09-19T01:19:56;17.15;;;11.90;;
81967;SDS011;72395;56.880;60.614;2023-09-19T01:30:35;19.80;;;11.27;;
81967;SDS011;72395;56.880;60.614;2023-09-19T01:33:02;22.48;;;11.10;;
81967;SDS011;72395;56.880;60.614;2023-09-19T01:35:32;20.77;;;10.20;;
81967;SDS011;72395;56.880;60.614;2023-09-19T01:38:00;15.02;;;10.27;;
81967;SDS011;72395;56.880;60.614;2023-09-19T01:40:27;21.15;;;9.90;;
81967;SDS011;72395;56.880;60.614;2023-09-19T01:48:57;13.38;;;8.88;;
81967;SDS011;72395;56.880;60.614;2023-09-19T01:51:33;14.60;;;9.48;;
81967;SDS011;72395;56.880;60.614;2023-09-19T01:54:03;18.60;;;10.02;;
81967;SDS011;72395;56.880;60.614;2023-09-19T01:59:21;22.00;;;10.25;;
81967;SDS011;72395;56.880;60.614;2023-09-19T02:01:53;19.92;;;10.70;;
81967;SDS011;72395;56.880;60.614;2023-09-19T02:04:20;16.90;;;11.40;;
81967;SDS011;72395;56.880;60.614;2023-09-19T02:06:47;21.25;;;10.48;;
81967;SDS011;72395;56.880;60.614;2023-09-19T02:09:14;17.70;;;11.07;;
81967;SDS011;72395;56.880;60.614;2023-09-19T02:11:41;14.63;;;9.55;;
81967;SDS011;72395;56.880;60.614;2023-09-19T02:14:08;18.63;;;10.75;;
81967;SDS011;72395;56.880;60.614;2023-09-19T02:16:34;14.63;;;10.20;;
81967;SDS011;72395;56.880;60.614;2023-09-19T02:19:01;14.63;;;10.60;;
81967;SDS011;72395;56.880;60.614;2023-09-19T02:21:31;17.48;;;10.38;;
81967;SDS011;72395;56.880;60.614;2023-09-19T02:23:59;23.73;;;10.93;;
81967;SDS011;72395;56.880;60.614;2023-09-19T02:26:25;20.15;;;9.73;;
81967;SDS011;72395;56.880;60.614;2023-09-19T02:28:53;15.65;;;9.55;;
81967;SDS011;72395;56.880;60.614;2023-09-19T02:31:19;19.02;;;9.93;;
81967;SDS011;72395;56.880;60.614;2023-09-19T02:33:46;16.63;;;9.25;;
81967;SDS011;72395;56.880;60.614;2023-09-19T02:36:14;17.83;;;8.77;;
81967;SDS011;72395;56.880;60.614;2023-09-19T02:38:43;13.82;;;8.70;;
81967;SDS011;72395;56.880;60.614;2023-09-19T02:41:09;15.32;;;8.85;;
81967;SDS011;72395;56.880;60.614;2023-09-19T02:43:38;12.82;;;8.55;;
81967;SDS011;72395;56.880;60.614;2023-09-19T02:46:04;15.25;;;8.63;;
81967;SDS011;72395;56.880;60.614;2023-09-19T02:48:31;11.48;;;7.60;;
81967;SDS011;72395;56.880;60.614;2023-09-19T02:50:59;16.75;;;8.75;;
81967;SDS011;72395;56.880;60.614;2023-09-19T02:53:25;19.70;;;8.48;;
81967;SDS011;72395;56.880;60.614;2023-09-19T02:55:51;15.10;;;8.00;;
81967;SDS011;72395;56.880;60.614;2023-09-19T02:58:20;11.63;;;8.70;;
81967;SDS011;72395;56.880;60.614;2023-09-19T03:00:46;13.30;;;9.00;;
81967;SDS011;72395;56.880;60.614;2023-09-19T03:03:14;12.13;;;8.15;;
81967;SDS011;72395;56.880;60.614;2023-09-19T03:05:41;11.80;;;8.13;;
81967;SDS011;72395;56.880;60.614;2023-09-19T03:08:13;16.23;;;8.85;;
81967;SDS011;72395;56.880;60.614;2023-09-19T03:10:41;11.70;;;8.55;;
81967;SDS011;72395;56.880;60.614;2023-09-19T03:13:08;12.65;;;7.85;;
81967;SDS011;72395;56.880;60.614;2023-09-19T03:15:36;12.82;;;7.20;;
81967;SDS011;72395;56.880;60.614;2023-09-19T03:18:05;11.95;;;8.25;;
81967;SDS011;72395;56.880;60.614;2023-09-19T03:20:33;12.63;;;7.90;;
81967;SDS011;72395;56.880;60.614;2023-09-19T03:23:00;10.13;;;7.85;;
81967;SDS011;72395;56.880;60.614;2023-09-19T03:25:28;13.55;;;8.68;;
81967;SDS011;72395;56.880;60.614;2023-09-19T03:27:56;13.88;;;10.05;;
81967;SDS011;72395;56.880;60.614;2023-09-19T03:30:25;15.70;;;9.45;;
81967;SDS011;72395;56.880;60.614;2023-09-19T03:32:52;16.00;;;9.70;;
81967;SDS011;72395;56.880;60.614;2023-09-19T03:35:19;14.13;;;9.85;;
81967;SDS011;72395;56.880;60.614;2023-09-19T03:37:46;16.80;;;10.35;;
81967;SDS011;72395;56.880;60.614;2023-09-19T03:40:14;17.52;;;9.55;;
81967;SDS011;72395;56.880;60.614;2023-09-19T03:42:42;22.02;;;11.02;;
81967;SDS011;72395;56.880;60.614;2023-09-19T03:45:12;22.55;;;11.02;;
81967;SDS011;72395;56.880;60.614;2023-09-19T03:47:44;10.73;;;7.68;;
81967;SDS011;72395;56.880;60.614;2023-09-19T03:50:15;12.63;;;7.88;;
81967;SDS011;72395;56.880;60.614;2023-09-19T03:52:44;17.92;;;8.55;;
81967;SDS011;72395;56.880;60.614;2023-09-19T03:55:11;16.25;;;8.55;;
81967;SDS011;72395;56.880;60.614;2023-09-19T03:57:38;12.32;;;8.15;;
81967;SDS011;72395;56.880;60.614;2023-09-19T04:00:05;16.77;;;7.85;;
81967;SDS011;72395;56.880;60.614;2023-09-19T04:02:40;17.25;;;8.35;;
81967;SDS011;72395;56.880;60.614;2023-09-19T04:05:08;17.70;;;8.55;;
81967;SDS011;72395;56.880;60.614;2023-09-19T04:07:35;15.45;;;7.20;;
81967;SDS011;72395;56.880;60.614;2023-09-19T04:10:02;9.18;;;5.93;;
81967;SDS011;72395;56.880;60.614;2023-09-19T04:12:30;9.80;;;6.05;;
81967;SDS011;72395;56.880;60.614;2023-09-19T04:14:59;11.10;;;5.72;;
81967;SDS011;72395;56.880;60.614;2023-09-19T04:17:25;8.93;;;5.50;;
81967;SDS011;72395;56.880;60.614;2023-09-19T04:19:52;13.93;;;6.18;;
81967;SDS011;72395;56.880;60.614;2023-09-19T04:22:19;12.13;;;5.30;;
81967;SDS011;72395;56.880;60.614;2023-09-19T04:24:46;9.63;;;5.80;;
81967;SDS011;72395;56.880;60.614;2023-09-19T04:27:15;10.57;;;5.45;;
81967;SDS011;72395;56.880;60.614;2023-09-19T04:29:42;10.23;;;5.47;;
81967;SDS011;72395;56.880;60.614;2023-09-19T04:32:08;13.57;;;6.10;;
81967;SDS011;72395;56.880;60.614;2023-09-19T04:34:36;11.95;;;6.55;;
81967;SDS011;72395;56.880;60.614;2023-09-19T04:37:04;18.40;;;7.63;;
81967;SDS011;72395;56.880;60.614;2023-09-19T04:39:31;17.95;;;8.50;;
81967;SDS011;72395;56.880;60.614;2023-09-19T04:41:57;18.42;;;6.95;;
81967;SDS011;72395;56.880;60.614;2023-09-19T04:44:25;12.77;;;5.90;;
81967;SDS011;72395;56.880;60.614;2023-09-19T04:46:52;11.43;;;5.97;;
81967;SDS011;72395;56.880;60.614;2023-09-19T04:49:19;10.43;;;5.60;;
81967;SDS011;72395;56.880;60.614;2023-09-19T04:51:45;10.05;;;5.25;;
81967;SDS011;72395;56.880;60.614;2023-09-19T04:54:13;10.77;;;5.90;;
81967;SDS011;72395;56.880;60.614;2023-09-19T04:56:40;9.40;;;5.53;;
81967;SDS011;72395;56.880;60.614;2023-09-19T04:59:07;18.88;;;5.43;;
81967;SDS011;72395;56.880;60.614;2023-09-19T05:01:33;11.40;;;5.45;;
81967;SDS011;72395;56.880;60.614;2023-09-19T05:04:00;7.32;;;4.72;;
81967;SDS011;72395;56.880;60.614;2023-09-19T05:06:27;7.68;;;5.00;;
81967;SDS011;72395;56.880;60.614;2023-09-19T05:08:55;14.13;;;5.70;;
81967;SDS011;72395;56.880;60.614;2023-09-19T05:11:21;11.75;;;4.75;;
81967;SDS011;72395;56.880;60.614;2023-09-19T05:13:49;10.10;;;5.10;;
81967;SDS011;72395;56.880;60.614;2023-09-19T05:16:22;18.48;;;5.85;;
81967;SDS011;72395;56.880;60.614;2023-09-19T05:18:48;8.80;;;4.88;;
81967;SDS011;72395;56.880;60.614;2023-09-19T05:21:15;7.03;;;3.92;;
81967;SDS011;72395;56.880;60.614;2023-09-19T05:23:43;5.50;;;3.97;;
81967;SDS011;72395;56.880;60.614;2023-09-19T05:26:10;10.05;;;4.43;;
81967;SDS011;72395;56.880;60.614;2023-09-19T05:28:38;9.88;;;4.57;;
81967;SDS011;72395;56.880;60.614;2023-09-19T05:31:05;7.75;;;4.45;;
81967;SDS011;72395;56.880;60.614;2023-09-19T05:33:32;12.48;;;4.95;;
81967;SDS011;72395;56.880;60.614;2023-09-19T05:35:59;9.80;;;5.15;;
81967;SDS011;72395;56.880;60.614;2023-09-19T05:38:26;13.88;;;4.60;;
81967;SDS011;72395;56.880;60.614;2023-09-19T05:40:53;8.07;;;4.80;;
81967;SDS011;72395;56.880;60.614;2023-09-19T05:43:20;9.95;;;4.38;;
81967;SDS011;72395;56.880;60.614;2023-09-19T05:45:46;10.82;;;4.75;;
81967;SDS011;72395;56.880;60.614;2023-09-19T05:48:14;15.35;;;5.45;;
81967;SDS011;72395;56.880;60.614;2023-09-19T05:50:41;13.13;;;5.32;;
81967;SDS011;72395;56.880;60.614;2023-09-19T05:53:08;15.50;;;5.40;;
81967;SDS011;72395;56.880;60.614;2023-09-19T05:55:38;12.63;;;4.90;;
81967;SDS011;72395;56.880;60.614;2023-09-19T05:58:06;11.32;;;4.75;;
81967;SDS011;72395;56.880;60.614;2023-09-19T06:00:33;10.73;;;4.88;;
81967;SDS011;72395;56.880;60.614;2023-09-19T06:02:59;10.73;;;5.30;;
81967;SDS011;72395;56.880;60.614;2023-09-19T06:05:26;12.38;;;5.38;;
81967;SDS011;72395;56.880;60.614;2023-09-19T06:07:54;8.95;;;4.93;;
81967;SDS011;72395;56.880;60.614;2023-09-19T06:10:21;11.00;;;4.60;;
81967;SDS011;72395;56.880;60.614;2023-09-19T06:12:49;11.27;;;5.88;;
81967;SDS011;72395;56.880;60.614;2023-09-19T06:15:16;11.85;;;5.07;;
81967;SDS011;72395;56.880;60.614;2023-09-19T06:17:53;9.40;;;4.05;;
81967;SDS011;72395;56.880;60.614;2023-09-19T06:20:25;7.25;;;3.42;;
81967;SDS011;72395;56.880;60.614;2023-09-19T06:22:52;3.90;;;3.17;;
81967;SDS011;72395;56.880;60.614;2023-09-19T06:25:19;7.47;;;3.20;;
81967;SDS011;72395;56.880;60.614;2023-09-19T06:27:50;6.10;;;3.40;;
81967;SDS011;72395;56.880;60.614;2023-09-19T06:30:20;3.90;;;3.28;;
81967;SDS011;72395;56.880;60.614;2023-09-19T06:32:47;5.22;;;3.28;;
81967;SDS011;72395;56.880;60.614;2023-09-19T06:35:15;8.52;;;3.15;;
81967;SDS011;72395;56.880;60.614;2023-09-19T06:37:42;7.22;;;3.50;;
81967;SDS011;72395;56.880;60.614;2023-09-19T06:40:10;7.88;;;3.55;;
81967;SDS011;72395;56.880;60.614;2023-09-19T06:42:43;4.80;;;2.80;;
81967;SDS011;72395;56.880;60.614;2023-09-19T06:45:14;5.53;;;3.63;;
81967;SDS011;72395;56.880;60.614;2023-09-19T06:47:48;8.30;;;3.90;;
81967;SDS011;72395;56.880;60.614;2023-09-19T06:50:16;5.63;;;3.65;;
81967;SDS011;72395;56.880;60.614;2023-09-19T06:52:46;5.57;;;3.03;;
81967;SDS011;72395;56.880;60.614;2023-09-19T06:55:16;5.38;;;3.28;;
81967;SDS011;72395;56.880;60.614;2023-09-19T06:57:43;4.38;;;3.20;;
81967;SDS011;72395;56.880;60.614;2023-09-19T07:00:10;6.95;;;3.80;;
81967;SDS011;72395;56.880;60.614;2023-09-19T07:02:55;7.75;;;3.60;;
81967;SDS011;72395;56.880;60.614;2023-09-19T07:05:27;4.35;;;3.15;;
81967;SDS011;72395;56.880;60.614;2023-09-19T07:07:53;4.75;;;3.45;;
81967;SDS011;72395;56.880;60.614;2023-09-19T07:10:30;8.98;;;3.75;;
81967;SDS011;72395;56.880;60.614;2023-09-19T07:13:00;14.10;;;4.63;;
81967;SDS011;72395;56.880;60.614;2023-09-19T07:15:28;7.30;;;3.63;;
81967;SDS011;72395;56.880;60.614;2023-09-19T07:17:56;7.47;;;3.45;;
81967;SDS011;72395;56.880;60.614;2023-09-19T07:20:24;9.23;;;3.83;;
81967;SDS011;72395;56.880;60.614;2023-09-19T07:23:00;6.03;;;3.88;;
81967;SDS011;72395;56.880;60.614;2023-09-19T07:25:27;6.82;;;4.57;;
81967;SDS011;72395;56.880;60.614;2023-09-19T07:27:55;8.88;;;4.25;;
81967;SDS011;72395;56.880;60.614;2023-09-19T07:30:22;13.73;;;4.97;;
81967;SDS011;72395;56.880;60.614;2023-09-19T07:32:49;22.73;;;6.72;;
81967;SDS011;72395;56.880;60.614;2023-09-19T07:35:16;16.80;;;5.57;;
81967;SDS011;72395;56.880;60.614;2023-09-19T07:37:42;12.05;;;5.88;;
81967;SDS011;72395;56.880;60.614;2023-09-19T07:40:09;11.48;;;5.47;;
81967;SDS011;72395;56.880;60.614;2023-09-19T07:42:37;8.07;;;4.20;;
81967;SDS011;72395;56.880;60.614;2023-09-19T07:45:07;9.48;;;4.43;;
81967;SDS011;72395;56.880;60.614;2023-09-19T07:47:34;8.00;;;4.55;;
81967;SDS011;72395;56.880;60.614;2023-09-19T07:50:02;8.18;;;4.75;;
81967;SDS011;72395;56.880;60.614;2023-09-19T07:52:29;8.93;;;4.60;;
81967;SDS011;72395;56.880;60.614;2023-09-19T07:54:56;11.98;;;5.53;;
81967;SDS011;72395;56.880;60.614;2023-09-19T07:57:23;10.77;;;4.88;;
81967;SDS011;72395;56.880;60.614;2023-09-19T07:59:51;10.82;;;5.28;;
81967;SDS011;72395;56.880;60.614;2023-09-19T08:02:17;7.47;;;4.03;;
81967;SDS011;72395;56.880;60.614;2023-09-19T08:04:44;10.60;;;4.40;;
81967;SDS011;72395;56.880;60.614;2023-09-19T08:07:14;7.75;;;4.30;;
81967;SDS011;72395;56.880;60.614;2023-09-19T08:09:41;9.43;;;4.10;;
81967;SDS011;72395;56.880;60.614;2023-09-19T08:12:12;9.60;;;4.20;;
81967;SDS011;72395;56.880;60.614;2023-09-19T08:14:38;7.43;;;4.00;;
81967;SDS011;72395;56.880;60.614;2023-09-19T08:17:07;4.35;;;3.72;;
81967;SDS011;72395;56.880;60.614;2023-09-19T08:19:34;8.15;;;4.10;;
81967;SDS011;72395;56.880;60.614;2023-09-19T08:22:00;10.18;;;4.30;;
81967;SDS011;72395;56.880;60.614;2023-09-19T08:24:27;8.15;;;4.75;;
81967;SDS011;72395;56.880;60.614;2023-09-19T08:26:55;7.05;;;3.92;;
81967;SDS011;72395;56.880;60.614;2023-09-19T08:29:22;6.75;;;3.05;;
81967;SDS011;72395;56.880;60.614;2023-09-19T08:31:56;6.00;;;2.65;;
81967;SDS011;72395;56.880;60.614;2023-09-19T08:34:24;6.22;;;2.80;;
81967;SDS011;72395;56.880;60.614;2023-09-19T08:36:51;12.35;;;3.03;;
81967;SDS011;72395;56.880;60.614;2023-09-19T08:39:23;5.07;;;3.00;;
81967;SDS011;72395;56.880;60.614;2023-09-19T08:41:56;8.32;;;2.83;;
81967;SDS011;72395;56.880;60.614;2023-09-19T08:44:27;12.68;;;3.38;;
81967;SDS011;72395;56.880;60.614;2023-09-19T08:47:00;12.10;;;3.10;;
81967;SDS011;72395;56.880;60.614;2023-09-19T08:52:11;3.22;;;2.55;;
81967;SDS011;72395;56.880;60.614;2023-09-19T08:54:45;5.05;;;2.72;;
81967;SDS011;72395;56.880;60.614;2023-09-19T08:57:15;8.60;;;3.40;;
81967;SDS011;72395;56.880;60.614;2023-09-19T08:59:50;4.53;;;2.67;;
81967;SDS011;72395;56.880;60.614;2023-09-19T09:02:17;5.50;;;3.30;;
81967;SDS011;72395;56.880;60.614;2023-09-19T09:04:47;6.65;;;3.00;;
81967;SDS011;72395;56.880;60.614;2023-09-19T09:07:15;5.10;;;2.97;;
81967;SDS011;72395;56.880;60.614;2023-09-19T09:09:45;6.43;;;3.15;;
81967;SDS011;72395;56.880;60.614;2023-09-19T09:12:12;7.40;;;3.75;;
81967;SDS011;72395;56.880;60.614;2023-09-19T09:14:40;9.85;;;3.58;;
81967;SDS011;72395;56.880;60.614;2023-09-19T09:17:11;7.85;;;3.50;;
81967;SDS011;72395;56.880;60.614;2023-09-19T09:19:38;5.15;;;2.97;;
81967;SDS011;72395;56.880;60.614;2023-09-19T09:22:05;4.53;;;2.95;;
81967;SDS011;72395;56.880;60.614;2023-09-19T09:24:36;6.60;;;2.53;;
81967;SDS011;72395;56.880;60.614;2023-09-19T09:27:06;12.80;;;3.72;;
81967;SDS011;72395;56.880;60.614;2023-09-19T09:32:16;5.38;;;3.03;;
81967;SDS011;72395;56.880;60.614;2023-09-19T09:34:56;9.05;;;3.50;;
81967;SDS011;72395;56.880;60.614;2023-09-19T09:37:23;5.13;;;3.80;;
81967;SDS011;72395;56.880;60.614;2023-09-19T09:42:38;6.10;;;2.65;;
81967;SDS011;72395;56.880;60.614;2023-09-19T09:45:12;5.20;;;2.97;;
81967;SDS011;72395;56.880;60.614;2023-09-19T09:47:43;5.68;;;2.40;;
81967;SDS011;72395;56.880;60.614;2023-09-19T09:50:29;4.07;;;2.95;;
81967;SDS011;72395;56.880;60.614;2023-09-19T09:53:23;5.40;;;3.03;;
81967;SDS011;72395;56.880;60.614;2023-09-19T09:55:56;7.72;;;2.47;;
81967;SDS011;72395;56.880;60.614;2023-09-19T09:58:28;4.03;;;2.20;;
81967;SDS011;72395;56.880;60.614;2023-09-19T10:00:59;5.53;;;2.47;;
81967;SDS011;72395;56.880;60.614;2023-09-19T10:03:31;2.40;;;2.00;;
81967;SDS011;72395;56.880;60.614;2023-09-19T10:06:12;5.68;;;2.42;;
81967;SDS011;72395;56.880;60.614;2023-09-19T10:11:44;6.10;;;2.72;;
81967;SDS011;72395;56.880;60.614;2023-09-19T10:16:47;7.40;;;1.73;;
81967;SDS011;72395;56.880;60.614;2023-09-19T10:19:26;2.72;;;1.83;;
81967;SDS011;72395;56.880;60.614;2023-09-19T10:21:57;3.20;;;1.73;;
81967;SDS011;72395;56.880;60.614;2023-09-19T10:24:25;5.07;;;1.90;;
81967;SDS011;72395;56.880;60.614;2023-09-19T10:26:52;1.83;;;1.50;;
81967;SDS011;72395;56.880;60.614;2023-09-19T10:29:21;4.55;;;1.92;;
81967;SDS011;72395;56.880;60.614;2023-09-19T10:31:48;7.72;;;2.45;;
81967;SDS011;72395;56.880;60.614;2023-09-19T10:34:14;3.38;;;1.60;;
81967;SDS011;72395;56.880;60.614;2023-09-19T10:36:44;2.47;;;1.60;;
81967;SDS011;72395;56.880;60.614;2023-09-19T10:39:16;7.38;;;2.17;;
81967;SDS011;72395;56.880;60.614;2023-09-19T10:41:55;4.17;;;1.87;;
81967;SDS011;72395;56.880;60.614;2023-09-19T10:44:25;4.55;;;1.60;;
81967;SDS011;72395;56.880;60.614;2023-09-19T10:46:52;4.07;;;1.50;;
81967;SDS011;72395;56.880;60.614;2023-09-19T10:49:20;6.95;;;2.30;;
81967;SDS011;72395;56.880;60.614;2023-09-19T10:51:52;3.58;;;1.80;;
81967;SDS011;72395;56.880;60.614;2023-09-19T10:54:22;2.25;;;1.80;;
81967;SDS011;72395;56.880;60.614;2023-09-19T10:56:52;4.13;;;1.80;;
81967;SDS011;72395;56.880;60.614;2023-09-19T10:59:21;6.38;;;1.98;;
81967;SDS011;72395;56.880;60.614;2023-09-19T11:01:48;4.43;;;1.83;;
81967;SDS011;72395;56.880;60.614;2023-09-19T11:04:26;4.93;;;1.80;;
81967;SDS011;72395;56.880;60.614;2023-09-19T11:07:05;5.00;;;2.00;;
81967;SDS011;72395;56.880;60.614;2023-09-19T11:09:42;9.82;;;2.47;;
81967;SDS011;72395;56.880;60.614;2023-09-19T11:15:07;5.38;;;1.70;;
81967;SDS011;72395;56.880;60.614;2023-09-19T11:17:38;1.48;;;1.33;;
81967;SDS011;72395;56.880;60.614;2023-09-19T11:30:45;3.92;;;1.30;;
81967;SDS011;72395;56.880;60.614;2023-09-19T11:36:09;1.42;;;1.20;;
81967;SDS011;72395;56.880;60.614;2023-09-19T11:41:56;3.03;;;2.13;;
81967;SDS011;72395;56.880;60.614;2023-09-19T11:49:24;2.78;;;1.50;;
81967;SDS011;72395;56.880;60.614;2023-09-19T11:51:56;4.22;;;1.65;;
81967;SDS011;72395;56.880;60.614;2023-09-19T11:54:23;2.50;;;1.40;;
81967;SDS011;72395;56.880;60.614;2023-09-19T11:56:55;5.13;;;1.25;;
81967;SDS011;72395;56.880;60.614;2023-09-19T11:59:21;2.65;;;1.50;;
81967;SDS011;72395;56.880;60.614;2023-09-19T12:01:58;2.92;;;1.60;;
81967;SDS011;72395;56.880;60.614;2023-09-19T12:04:34;2.90;;;1.48;;
81967;SDS011;72395;56.880;60.614;2023-09-19T12:07:07;7.57;;;2.28;;
81967;SDS011;72395;56.880;60.614;2023-09-19T12:09:39;2.60;;;1.75;;
81967;SDS011;72395;56.880;60.614;2023-09-19T12:12:08;4.25;;;1.50;;
81967;SDS011;72395;56.880;60.614;2023-09-19T12:14:35;5.63;;;1.55;;
81967;SDS011;72395;56.880;60.614;2023-09-19T12:17:01;2.25;;;1.50;;
81967;SDS011;72395;56.880;60.614;2023-09-19T12:19:29;6.53;;;1.50;;
81967;SDS011;72395;56.880;60.614;2023-09-19T12:21:57;4.93;;;1.42;;
81967;SDS011;72395;56.880;60.614;2023-09-19T12:24:26;3.33;;;1.30;;
81967;SDS011;72395;56.880;60.614;2023-09-19T12:27:02;2.35;;;1.45;;
81967;SDS011;72395;56.880;60.614;2023-09-19T12:29:45;3.50;;;1.50;;
81967;SDS011;72395;56.880;60.614;2023-09-19T12:32:14;4.18;;;1.58;;
81967;SDS011;72395;56.880;60.614;2023-09-19T12:34:51;2.35;;;1.23;;
81967;SDS011;72395;56.880;60.614;2023-09-19T12:37:21;5.00;;;2.70;;
81967;SDS011;72395;56.880;60.614;2023-09-19T12:39:49;1.70;;;1.33;;
81967;SDS011;72395;56.880;60.614;2023-09-19T12:42:21;2.05;;;1.30;;
81967;SDS011;72395;56.880;60.614;2023-09-19T12:44:51;1.20;;;1.10;;
81967;SDS011;72395;56.880;60.614;2023-09-19T12:52:45;1.70;;;1.17;;
81967;SDS011;72395;56.880;60.614;2023-09-19T12:55:19;2.47;;;1.13;;
81967;SDS011;72395;56.880;60.614;2023-09-19T13:00:36;1.95;;;1.25;;
81967;SDS011;72395;56.880;60.614;2023-09-19T13:03:13;2.03;;;1.30;;
81967;SDS011;72395;56.880;60.614;2023-09-19T13:08:23;2.53;;;1.27;;
81967;SDS011;72395;56.880;60.614;2023-09-19T13:11:02;4.30;;;1.70;;
81967;SDS011;72395;56.880;60.614;2023-09-19T13:13:30;6.43;;;1.50;;
81967;SDS011;72395;56.880;60.614;2023-09-19T13:15:56;3.85;;;2.30;;
81967;SDS011;72395;56.880;60.614;2023-09-19T13:18:28;4.63;;;1.65;;
81967;SDS011;72395;56.880;60.614;2023-09-19T13:21:17;4.18;;;1.20;;
81967;SDS011;72395;56.880;60.614;2023-09-19T13:23:52;1.50;;;1.25;;
81967;SDS011;72395;56.880;60.614;2023-09-19T13:28:49;3.17;;;0.90;;
81967;SDS011;72395;56.880;60.614;2023-09-19T13:31:15;4.25;;;1.73;;
81967;SDS011;72395;56.880;60.614;2023-09-19T13:33:43;3.78;;;1.40;;
81967;SDS011;72395;56.880;60.614;2023-09-19T13:36:14;3.13;;;1.88;;
81967;SDS011;72395;56.880;60.614;2023-09-19T13:38:41;3.97;;;1.33;;
81967;SDS011;72395;56.880;60.614;2023-09-19T13:41:11;5.50;;;2.20;;
81967;SDS011;72395;56.880;60.614;2023-09-19T13:43:37;2.95;;;1.15;;
81967;SDS011;72395;56.880;60.614;2023-09-19T13:46:05;4.63;;;1.52;;
81967;SDS011;72395;56.880;60.614;2023-09-19T13:48:38;2.40;;;1.10;;
81967;SDS011;72395;56.880;60.614;2023-09-19T13:51:04;2.70;;;1.20;;
81967;SDS011;72395;56.880;60.614;2023-09-19T13:53:31;5.38;;;1.02;;
81967;SDS011;72395;56.880;60.614;2023-09-19T13:55:57;2.95;;;1.20;;
81967;SDS011;72395;56.880;60.614;2023-09-19T13:58:24;6.00;;;1.27;;
81967;SDS011;72395;56.880;60.614;2023-09-19T14:00:51;5.03;;;1.40;;
81967;SDS011;72395;56.880;60.614;2023-09-19T14:03:21;4.05;;;1.10;;
81967;SDS011;72395;56.880;60.614;2023-09-19T14:05:47;6.68;;;1.25;;
81967;SDS011;72395;56.880;60.614;2023-09-19T14:08:14;7.20;;;1.30;;
81967;SDS011;72395;56.880;60.614;2023-09-19T14:10:41;4.22;;;1.77;;
81967;SDS011;72395;56.880;60.614;2023-09-19T14:13:08;2.53;;;0.82;;
81967;SDS011;72395;56.880;60.614;2023-09-19T14:15:36;3.58;;;1.30;;
81967;SDS011;72395;56.880;60.614;2023-09-19T14:18:04;2.42;;;1.10;;
81967;SDS011;72395;56.880;60.614;2023-09-19T14:20:31;4.55;;;0.98;;
81967;SDS011;72395;56.880;60.614;2023-09-19T14:22:57;2.95;;;1.27;;
81967;SDS011;72395;56.880;60.614;2023-09-19T14:25:27;2.97;;;1.00;;
81967;SDS011;72395;56.880;60.614;2023-09-19T14:27:56;4.00;;;0.93;;
81967;SDS011;72395;56.880;60.614;2023-09-19T14:30:22;7.30;;;1.70;;
81967;SDS011;72395;56.880;60.614;2023-09-19T14:32:49;2.70;;;1.45;;
81967;SDS011;72395;56.880;60.614;2023-09-19T14:35:17;3.90;;;1.50;;
81967;SDS011;72395;56.880;60.614;2023-09-19T14:37:43;2.10;;;1.20;;
81967;SDS011;72395;56.880;60.614;2023-09-19T14:40:11;5.43;;;1.38;;
81967;SDS011;72395;56.880;60.614;2023-09-19T14:42:39;3.92;;;1.33;;
81967;SDS011;72395;56.880;60.614;2023-09-19T14:45:06;6.95;;;2.22;;
81967;SDS011;72395;56.880;60.614;2023-09-19T14:47:33;4.22;;;1.55;;
81967;SDS011;72395;56.880;60.614;2023-09-19T14:50:03;4.05;;;1.45;;
81967;SDS011;72395;56.880;60.614;2023-09-19T14:52:32;7.07;;;1.60;;
81967;SDS011;72395;56.880;60.614;2023-09-19T14:55:00;3.88;;;1.33;;
81967;SDS011;72395;56.880;60.614;2023-09-19T14:57:27;3.67;;;1.75;;
81967;SDS011;72395;56.880;60.614;2023-09-19T14:59:54;3.78;;;1.65;;
81967;SDS011;72395;56.880;60.614;2023-09-19T15:02:20;2.67;;;1.65;;
81967;SDS011;72395;56.880;60.614;2023-09-19T15:04:47;4.05;;;1.80;;
81967;SDS011;72395;56.880;60.614;2023-09-19T15:07:14;3.75;;;1.80;;
81967;SDS011;72395;56.880;60.614;2023-09-19T15:09:43;4.70;;;1.70;;
81967;SDS011;72395;56.880;60.614;2023-09-19T15:12:10;28.02;;;2.72;;
81967;SDS011;72395;56.880;60.614;2023-09-19T15:14:40;7.28;;;1.90;;
81967;SDS011;72395;56.880;60.614;2023-09-19T15:17:10;5.18;;;1.98;;
81967;SDS011;72395;56.880;60.614;2023-09-19T15:19:36;10.05;;;1.98;;
81967;SDS011;72395;56.880;60.614;2023-09-19T15:22:03;7.70;;;1.92;;
81967;SDS011;72395;56.880;60.614;2023-09-19T15:24:31;4.60;;;1.80;;
81967;SDS011;72395;56.880;60.614;2023-09-19T15:26:57;3.85;;;1.30;;
81967;SDS011;72395;56.880;60.614;2023-09-19T15:29:23;4.68;;;1.67;;
81967;SDS011;72395;56.880;60.614;2023-09-19T15:31:50;6.53;;;1.67;;
81967;SDS011;72395;56.880;60.614;2023-09-19T15:34:17;5.35;;;1.67;;
81967;SDS011;72395;56.880;60.614;2023-09-19T15:36:44;4.93;;;1.33;;
81967;SDS011;72395;56.880;60.614;2023-09-19T15:39:10;6.22;;;1.77;;
81967;SDS011;72395;56.880;60.614;2023-09-19T15:41:38;1.65;;;0.90;;
81967;SDS011;72395;56.880;60.614;2023-09-19T15:44:12;4.18;;;1.17;;
81967;SDS011;72395;56.880;60.614;2023-09-19T15:46:42;1.48;;;0.77;;
81967;SDS011;72395;56.880;60.614;2023-09-19T15:49:10;1.67;;;0.95;;